Time;durP1;ratioP1;P1;durP2;ratioP2;P2;SDS_P1;SDS_P2;PMS_P1;PMS_P2;Temp;Humidity;BMP_temperature;BMP_pressure;BME280_temperature;BME280_humidity;BME280_pressure;Samples;Min_cycle;Max_cycle;Signal;HPM_P1;HPM_P2
2021/10/10 00:01:05;;;;;;;48.53;32.70;;;;;;;0.60;100.00;102227.09;21096576;27;1355883;-66
2021/10/10 00:21:04;;;;;;;52.33;35.43;;;;;;;0.50;100.00;102220.88;21088683;27;1354650;-63
2021/10/10 01:10:58;;;;;;;53.90;34.70;;;;;;;0.61;100.00;102202.56;21059785;27;20571;-63
2021/10/10 01:31:00;;;;;;;43.50;30.43;;;;;;;0.51;100.00;102187.59;21059930;27;20567;-64
2021/10/10 01:41:02;;;;;;;60.73;35.97;;;;;;;0.40;100.00;102197.16;21058043;27;20745;-64
2021/10/10 01:51:06;;;;;;;57.43;37.83;;;;;;;0.26;100.00;102190.06;21057485;27;20230;-64
2021/10/10 02:21:17;;;;;;;72.33;42.80;;;;;;;0.08;100.00;102173.28;21200044;27;20786;-63
2021/10/10 02:31:19;;;;;;;63.33;40.87;;;;;;;0.12;100.00;102170.69;21226256;27;20624;-59
2021/10/10 02:41:26;;;;;;;58.23;34.90;;;;;;;0.05;100.00;102168.88;21226212;27;20224;-62
2021/10/10 02:51:29;;;;;;;63.27;38.93;;;;;;;0.04;100.00;102154.00;21225608;27;20311;-65
2021/10/10 03:01:33;;;;;;;58.07;35.80;;;;;;;-0.15;100.00;102138.97;21224441;27;20309;-63
2021/10/10 03:11:35;;;;;;;54.33;32.20;;;;;;;-0.02;100.00;102152.22;21223665;27;20236;-64
2021/10/10 04:11:29;;;;;;;50.17;30.87;;;;;;;-0.13;100.00;102118.88;20984770;27;20626;-60
2021/10/10 05:01:18;;;;;;;33.63;22.53;;;;;;;-0.69;100.00;102113.09;21155371;27;20568;-58
2021/10/10 05:21:19;;;;;;;30.40;20.80;;;;;;;-0.52;100.00;102108.91;20987465;27;20976;-58
2021/10/10 05:41:17;;;;;;;41.10;27.20;;;;;;;-0.16;100.00;102100.47;21108262;27;1347141;-58
2021/10/10 06:21:10;;;;;;;40.97;26.10;;;;;;;1.17;100.00;102109.97;21058703;27;20579;-58
2021/10/10 06:41:10;;;;;;;29.07;22.93;;;;;;;2.74;100.00;102108.19;21176046;27;20574;-65
2021/10/10 06:51:12;;;;;;;25.23;20.17;;;;;;;3.53;100.00;102103.34;21142259;27;20215;-58
2021/10/10 07:01:21;;;;;;;21.30;15.93;;;;;;;4.37;100.00;102104.41;21141172;27;20220;-63
2021/10/10 07:21:54;;;;;;;12.30;10.60;;;;;;;6.08;100.00;102099.41;20899290;28;20573;-57
2021/10/10 07:31:56;;;;;;;13.33;9.50;;;;;;;6.98;100.00;102110.09;20872855;28;20586;-56
2021/10/10 07:42:00;;;;;;;12.53;10.07;;;;;;;7.65;100.00;102111.25;20890053;28;20429;-56
2021/10/10 07:52:03;;;;;;;9.33;7.70;;;;;;;8.26;100.00;102103.50;20889861;28;20254;-57
2021/10/10 08:02:09;;;;;;;11.10;7.87;;;;;;;8.81;100.00;102107.38;20865666;28;20232;-55
2021/10/10 08:12:12;;;;;;;8.23;7.27;;;;;;;9.33;100.00;102101.34;20874765;28;20593;-57
2021/10/10 08:34:14;;;;;;;10.23;9.07;;;;;;;10.41;100.00;102095.13;19763854;23;20230;-79
2021/10/10 09:07:07;;;;;;;6.20;5.60;;;;;;;11.63;100.00;102077.13;20583290;23;20230;-78
2021/10/10 09:17:30;;;;;;;14.80;10.13;;;;;;;11.94;99.52;102062.53;20536925;28;20346;-79
2021/10/10 09:27:50;;;;;;;7.80;5.70;;;;;;;12.20;98.50;102064.94;20551267;28;20636;-80
2021/10/10 09:38:21;;;;;;;11.23;8.40;;;;;;;12.34;97.12;102056.31;20688722;23;20633;-83
2021/10/10 09:48:46;;;;;;;8.17;7.27;;;;;;;12.54;100.00;102054.50;20549924;28;20189;-83
2021/10/10 09:59:01;;;;;;;10.73;6.77;;;;;;;12.62;80.40;102046.13;20553987;28;20262;-81
2021/10/10 10:09:25;;;;;;;9.43;7.67;;;;;;;12.77;89.41;102044.56;20573937;28;20562;-81
2021/10/10 10:19:42;;;;;;;9.73;6.63;;;;;;;12.83;72.73;102025.50;20555681;28;20864;-82
2021/10/10 10:30:09;;;;;;;12.30;6.70;;;;;;;13.01;85.51;102023.78;20557641;28;20211;-81
2021/10/10 10:40:39;;;;;;;38.77;17.70;;;;;;;13.14;70.93;102017.81;20516090;28;20273;-83
2021/10/10 10:51:26;;;;;;;18.23;9.43;;;;;;;13.34;80.51;102020.41;20487136;28;20217;-83
2021/10/10 11:01:59;;;;;;;57.73;18.10;;;;;;;13.40;68.30;102007.63;20489444;29;20328;-81
2021/10/10 11:12:36;;;;;;;13.73;7.77;;;;;;;13.46;75.73;101991.22;20490595;29;20226;-83
2021/10/10 11:22:51;;;;;;;19.53;8.93;;;;;;;13.58;75.31;101993.31;20517855;28;20659;-81
2021/10/10 11:33:17;;;;;;;4.53;4.13;;;;;;;13.62;79.99;101970.75;20524980;28;20222;-81
2021/10/10 11:43:46;;;;;;;15.87;6.10;;;;;;;13.69;79.89;101961.44;20563357;28;20937;-84
2021/10/10 11:54:25;;;;;;;13.23;9.20;;;;;;;13.76;64.97;101941.41;20557874;28;20229;-82
2021/10/10 12:04:40;;;;;;;3.30;3.00;;;;;;;13.79;82.92;101932.31;20555814;28;20272;-81
2021/10/10 12:15:06;;;;;;;4.80;3.10;;;;;;;13.68;69.84;101911.41;20574894;28;20268;-81
2021/10/10 12:25:28;;;;;;;4.53;2.77;;;;;;;13.73;71.41;101897.75;20583542;28;20211;-82
2021/10/10 12:35:59;;;;;;;9.70;6.70;;;;;;;13.77;65.69;101908.22;20584095;28;20256;-83
2021/10/10 12:46:26;;;;;;;12.50;6.60;;;;;;;13.76;84.70;101887.75;20539286;28;20533;-85
2021/10/10 12:56:43;;;;;;;10.43;5.50;;;;;;;13.76;73.95;101877.00;20598272;28;20226;-86
2021/10/10 13:07:07;;;;;;;4.93;3.33;;;;;;;13.75;78.24;101875.28;20581297;28;20200;-87
2021/10/10 13:17:25;;;;;;;32.53;15.10;;;;;;;13.67;74.78;101864.06;20579587;28;20234;-85
2021/10/10 13:27:50;;;;;;;19.13;10.50;;;;;;;13.74;81.46;101854.75;20578860;28;20236;-86
2021/10/10 13:38:17;;;;;;;11.93;7.30;;;;;;;13.70;75.03;101839.75;20564401;28;20280;-88
2021/10/10 13:48:50;;;;;;;10.17;6.40;;;;;;;13.67;77.76;101839.91;20563539;28;20508;-85
2021/10/10 13:59:19;;;;;;;9.47;7.03;;;;;;;13.54;74.34;101830.78;20495744;29;20329;-84
2021/10/10 14:09:35;;;;;;;3.67;3.37;;;;;;;13.43;85.09;101822.41;20495722;29;20197;-84
2021/10/10 14:19:59;;;;;;;11.40;8.43;;;;;;;13.16;61.02;101801.44;20494974;29;20209;-84
2021/10/10 14:30:17;;;;;;;3.50;3.17;;;;;;;13.06;85.34;101804.66;20479713;29;20201;-85
2021/10/10 14:50:44;;;;;;;3.67;3.07;;;;;;;12.38;71.85;101793.75;20767894;27;8681874;-83
2021/10/10 15:11:10;;;;;;;7.63;3.20;;;;;;;11.23;83.55;101783.03;20769193;27;8595569;-83
2021/10/10 15:21:33;;;;;;;5.03;3.13;;;;;;;11.09;85.92;101763.13;20971222;28;20220;-84
2021/10/10 15:31:50;;;;;;;2.70;2.50;;;;;;;11.06;92.34;101757.03;20949563;28;20207;-85
2021/10/10 15:42:13;;;;;;;2.30;2.10;;;;;;;10.76;88.28;101753.84;20884791;28;20227;-83
2021/10/10 15:52:35;;;;;;;5.90;3.20;;;;;;;10.17;89.88;101759.81;20867282;28;20315;-85
2021/10/10 16:03:05;;;;;;;6.73;4.80;;;;;;;9.19;88.33;101708.47;20888897;28;20250;-86
2021/10/10 16:13:33;;;;;;;5.00;4.37;;;;;;;8.88;90.72;101736.19;20777167;28;20219;-85
2021/10/10 16:23:49;;;;;;;7.00;3.93;;;;;;;8.58;99.16;101747.88;20642715;28;20239;-84
2021/10/10 16:34:28;;;;;;;6.40;4.40;;;;;;;8.21;98.77;101737.56;20735843;28;20190;-85
2021/10/10 16:54:34;;;;;;;5.30;4.10;;;;;;;7.54;100.00;101734.28;20842843;28;20537;-82
2021/10/10 17:04:36;;;;;;;5.70;5.13;;;;;;;7.13;100.00;101732.78;20887710;28;20763;-84
2021/10/10 17:14:41;;;;;;;5.77;4.30;;;;;;;6.87;100.00;101741.47;20859527;28;20649;-85
2021/10/10 17:24:43;;;;;;;6.93;3.90;;;;;;;6.65;100.00;101735.81;20860182;28;20256;-89
2021/10/10 17:34:51;;;;;;;11.67;7.63;;;;;;;6.25;100.00;101724.47;20854355;28;20599;-84
2021/10/10 17:44:57;;;;;;;9.80;7.50;;;;;;;5.99;100.00;101711.81;20856494;28;20228;-84
2021/10/10 18:15:32;;;;;;;20.83;13.20;;;;;;;5.08;100.00;101728.69;20996407;27;20222;-86
2021/10/10 18:25:38;;;;;;;15.10;10.37;;;;;;;4.77;100.00;101693.16;20955173;28;20230;-80
2021/10/10 18:55:41;;;;;;;14.77;9.50;;;;;;;4.74;100.00;101690.56;21033374;27;20624;-82
2021/10/10 19:05:44;;;;;;;19.50;12.03;;;;;;;4.71;100.00;101698.53;21003888;28;20226;-82
2021/10/10 19:15:48;;;;;;;20.67;13.57;;;;;;;4.56;100.00;101688.28;21099384;28;20218;-83
2021/10/10 19:25:51;;;;;;;18.37;12.20;;;;;;;4.29;100.00;101681.69;21034941;28;20812;-80
2021/10/10 21:35:38;;;;;;;21.97;14.23;;;;;;;1.75;100.00;101572.31;21063601;27;20555;-80
2021/10/10 23:25:09;;;;;;;20.57;12.50;;;;;;;0.70;100.00;101478.41;21050625;27;20558;-79
